createdAt,value
2018-11-13T00:01:37.878Z,98764.03
2018-11-13T00:04:05.104Z,98774.83
2018-11-13T00:06:32.332Z,98770.56
2018-11-13T00:09:00.651Z,98764.90
2018-11-13T00:11:28.018Z,98764.84
2018-11-13T00:13:55.196Z,98774.70
2018-11-13T00:16:22.449Z,98776.73
2018-11-13T00:18:50.533Z,98767.66
2018-11-13T00:21:17.821Z,98762.16
2018-11-13T00:23:45.012Z,98752.44
2018-11-13T00:26:12.276Z,98761.27
2018-11-13T00:28:39.484Z,98751.06
2018-11-13T00:31:06.772Z,98755.61
2018-11-13T00:33:33.993Z,98760.73
2018-11-13T00:36:01.276Z,98757.78
2018-11-13T00:38:28.548Z,98770.64
2018-11-13T00:40:55.792Z,98769.50
2018-11-13T00:43:23.092Z,98768.81
2018-11-13T00:45:50.429Z,98762.91
2018-11-13T00:48:17.772Z,98768.16
2018-11-13T00:50:45.299Z,98770.73
2018-11-13T00:53:12.284Z,98768.59
2018-11-13T00:55:39.505Z,98783.72
2018-11-13T00:58:06.757Z,98798.23
2018-11-13T01:00:33.981Z,98798.96
2018-11-13T01:03:01.232Z,98811.50
2018-11-13T01:05:28.491Z,98801.28
2018-11-13T01:07:55.711Z,98789.17
2018-11-13T01:10:22.922Z,98797.39
2018-11-13T01:12:50.349Z,98793.38
2018-11-13T01:15:18.821Z,98794.75
2018-11-13T01:17:47.399Z,98800.14
2018-11-13T01:23:08.936Z,98817.25
2018-11-13T01:25:36.237Z,98818.62
2018-11-13T01:28:03.505Z,98803.59
2018-11-13T01:30:30.716Z,98803.08
2018-11-13T01:32:57.990Z,98781.88
2018-11-13T01:35:25.288Z,98803.06
2018-11-13T01:37:52.508Z,98815.47
2018-11-13T01:40:20.618Z,98814.55
2018-11-13T01:42:47.925Z,98804.61
2018-11-13T01:45:16.187Z,98801.33
2018-11-13T01:47:43.442Z,98791.44
2018-11-13T01:50:11.233Z,98802.27
2018-11-13T01:52:38.487Z,98802.17
2018-11-13T01:55:08.541Z,98807.70
2018-11-13T01:57:49.708Z,98805.28
2018-11-13T02:00:20.034Z,98807.01
2018-11-13T02:02:48.279Z,98799.76
2018-11-13T02:05:16.272Z,98797.89
2018-11-13T02:07:43.559Z,98794.33
2018-11-13T02:10:10.743Z,98804.53
2018-11-13T02:12:37.985Z,98807.72
2018-11-13T02:15:06.145Z,98805.99
2018-11-13T02:17:33.405Z,98804.98
2018-11-13T02:20:00.672Z,98806.55
2018-11-13T02:22:27.987Z,98810.92
2018-11-13T02:24:55.245Z,98811.33
2018-11-13T02:27:22.466Z,98823.65
2018-11-13T02:29:50.140Z,98828.06
2018-11-13T02:32:17.461Z,98833.39
2018-11-13T02:34:44.729Z,98837.84
2018-11-13T02:37:11.994Z,98822.88
2018-11-13T02:39:39.199Z,98807.25
2018-11-13T02:42:06.583Z,98801.67
2018-11-13T02:44:33.828Z,98799.23
2018-11-13T02:47:01.091Z,98793.24
2018-11-13T02:49:28.360Z,98804.14
2018-11-13T02:51:55.737Z,98800.33
2018-11-13T02:54:22.982Z,98799.02
2018-11-13T02:56:50.257Z,98808.65
2018-11-13T02:59:17.652Z,98816.09
2018-11-13T03:01:44.919Z,98812.37
2018-11-13T03:04:12.258Z,98824.17
2018-11-13T03:06:39.538Z,98826.66
2018-11-13T03:09:07.724Z,98821.97
2018-11-13T03:11:34.977Z,98804.22
2018-11-13T03:14:02.343Z,98802.50
2018-11-13T03:16:29.569Z,98809.03
2018-11-13T03:18:56.809Z,98810.27
2018-11-13T03:21:24.035Z,98796.26
2018-11-13T03:23:51.271Z,98797.17
2018-11-13T03:26:19.124Z,98808.69
2018-11-13T03:28:46.380Z,98816.59
2018-11-13T03:31:13.748Z,98823.19
2018-11-13T03:33:40.849Z,98819.64
2018-11-13T03:36:09.041Z,98814.31
2018-11-13T03:38:36.332Z,98806.80
2018-11-13T03:41:03.663Z,98805.99
2018-11-13T03:43:31.303Z,98799.50
2018-11-13T03:45:58.582Z,98817.34
2018-11-13T03:48:25.826Z,98823.67
2018-11-13T03:50:53.068Z,98820.27
2018-11-13T03:53:20.345Z,98820.72
2018-11-13T03:55:47.601Z,98816.45
2018-11-13T03:58:14.960Z,98811.73
2018-11-13T04:00:42.348Z,98810.42
2018-11-13T04:03:09.641Z,98811.28
2018-11-13T04:05:36.945Z,98806.10
2018-11-13T04:08:04.789Z,98809.69
2018-11-13T04:10:32.162Z,98809.64
2018-11-13T04:12:59.552Z,98815.28
2018-11-13T04:15:26.880Z,98810.88
2018-11-13T04:17:56.910Z,98811.41
2018-11-13T04:20:25.302Z,98819.42
2018-11-13T04:22:53.841Z,98822.14
2018-11-13T04:25:21.159Z,98820.87
2018-11-13T04:27:48.394Z,98827.91
2018-11-13T04:30:17.002Z,98826.60
2018-11-13T04:32:44.409Z,98818.24
2018-11-13T04:35:12.807Z,98822.69
2018-11-13T04:37:40.128Z,98816.91
2018-11-13T04:40:11.418Z,98834.91
2018-11-13T04:42:38.904Z,98835.41
2018-11-13T04:45:07.930Z,98849.45
2018-11-13T04:47:35.142Z,98848.99
2018-11-13T04:50:02.385Z,98861.71
2018-11-13T04:52:29.614Z,98872.20
2018-11-13T04:54:56.938Z,98880.02
2018-11-13T04:57:24.182Z,98873.11
2018-11-13T04:59:51.745Z,98886.00
2018-11-13T05:02:19.062Z,98894.58
2018-11-13T05:04:46.436Z,98882.44
2018-11-13T05:07:14.407Z,98882.61
2018-11-13T05:09:41.675Z,98897.25
2018-11-13T05:12:08.886Z,98918.52
2018-11-13T05:14:36.134Z,98919.08
2018-11-13T05:17:03.444Z,98926.30
2018-11-13T05:19:30.676Z,98920.59
2018-11-13T05:21:57.883Z,98909.23
2018-11-13T05:24:25.145Z,98922.44
2018-11-13T05:26:52.473Z,98929.95
2018-11-13T05:29:19.805Z,98924.69
2018-11-13T05:31:47.042Z,98933.48
2018-11-13T05:34:14.234Z,98929.09
2018-11-13T05:36:41.486Z,98925.59
2018-11-13T05:39:09.673Z,98919.53
2018-11-13T05:41:37.000Z,98904.69
2018-11-13T05:44:10.912Z,98903.93
2018-11-13T05:46:38.521Z,98906.94
2018-11-13T05:49:05.889Z,98902.61
2018-11-13T05:51:33.175Z,98913.14
2018-11-13T05:54:00.432Z,98913.55
2018-11-13T05:56:27.679Z,98927.20
2018-11-13T05:58:54.935Z,98931.17
2018-11-13T06:01:22.205Z,98939.94
2018-11-13T06:03:49.478Z,98950.88
2018-11-13T06:06:16.715Z,98953.92
2018-11-13T06:08:44.137Z,98947.80
2018-11-13T06:11:11.261Z,98949.56
2018-11-13T06:13:38.532Z,98948.17
2018-11-13T06:16:05.838Z,98952.91
2018-11-13T06:18:33.113Z,98957.27
2018-11-13T06:21:00.423Z,98958.14
2018-11-13T06:23:27.695Z,98954.68
2018-11-13T06:25:55.004Z,98955.58
2018-11-13T06:28:22.863Z,98952.95
2018-11-13T06:30:50.347Z,98953.02
2018-11-13T06:33:17.683Z,98961.40
2018-11-13T06:35:45.084Z,98963.13
2018-11-13T06:38:12.432Z,98960.08
2018-11-13T06:40:39.830Z,98961.84
2018-11-13T06:43:07.565Z,98974.14
2018-11-13T06:45:35.709Z,98979.40
2018-11-13T06:48:03.090Z,98990.38
2018-11-13T06:50:30.994Z,99012.70
2018-11-13T06:52:58.646Z,99016.23
2018-11-13T06:55:31.102Z,99003.94
2018-11-13T06:57:59.066Z,99009.59
2018-11-13T07:00:26.520Z,99012.66
2018-11-13T07:02:53.805Z,99012.73
2018-11-13T07:05:21.233Z,99017.64
2018-11-13T07:07:48.670Z,99026.85
2018-11-13T07:10:17.573Z,99029.06
2018-11-13T07:12:46.227Z,99026.05
2018-11-13T07:15:15.264Z,99023.87
2018-11-13T07:17:44.495Z,99025.98
2018-11-13T07:20:12.756Z,99019.44
2018-11-13T07:22:40.843Z,99008.02
2018-11-13T07:25:08.424Z,99002.76
2018-11-13T07:27:36.563Z,99002.83
2018-11-13T07:30:05.478Z,98997.11
2018-11-13T07:32:33.559Z,98994.87
2018-11-13T07:35:00.869Z,99008.44
2018-11-13T07:37:28.797Z,99013.70
2018-11-13T07:39:56.154Z,99001.03
2018-11-13T07:42:25.172Z,99009.78
2018-11-13T07:44:52.822Z,99011.97
2018-11-13T07:47:20.480Z,99022.45
2018-11-13T07:49:48.130Z,99030.41
2018-11-13T07:52:16.873Z,99034.81
2018-11-13T07:54:44.849Z,99037.47
2018-11-13T07:57:12.406Z,99044.97
2018-11-13T07:59:40.526Z,99057.61
2018-11-13T08:02:08.226Z,99062.94
2018-11-13T08:04:36.929Z,99062.94
2018-11-13T08:07:07.137Z,99071.31
2018-11-13T08:09:36.965Z,99066.91
2018-11-13T08:12:08.433Z,99075.67
2018-11-13T08:14:36.825Z,99084.02
2018-11-13T08:17:19.651Z,99090.58
2018-11-13T08:19:48.521Z,99094.53
2018-11-13T08:22:17.018Z,99105.92
2018-11-13T08:24:45.795Z,99102.88
2018-11-13T08:27:13.181Z,99104.61
2018-11-13T08:29:40.697Z,99105.05
2018-11-13T08:32:09.208Z,99111.18
2018-11-13T08:34:50.752Z,99117.70
2018-11-13T08:37:32.088Z,99122.93
2018-11-13T08:40:00.162Z,99125.92
2018-11-13T08:42:27.734Z,99126.73
2018-11-13T08:44:55.133Z,99123.56
2018-11-13T08:47:24.573Z,99132.35
2018-11-13T08:49:57.402Z,99128.83
2018-11-13T08:52:25.308Z,99137.17
2018-11-13T08:54:54.431Z,99139.73
2018-11-13T08:57:22.994Z,99134.89
2018-11-13T08:59:52.901Z,99130.02
2018-11-13T09:02:22.431Z,99133.48
2018-11-13T09:04:50.293Z,99138.75
2018-11-13T09:07:18.293Z,99160.67
2018-11-13T09:09:46.702Z,99159.36
2018-11-13T09:12:14.237Z,99163.70
2018-11-13T09:14:41.675Z,99165.01
2018-11-13T09:17:09.513Z,99172.40
2018-11-13T09:19:37.053Z,99171.08
2018-11-13T09:22:05.141Z,99178.92
2018-11-13T09:24:32.597Z,99190.34
2018-11-13T09:27:01.187Z,99198.66
2018-11-13T09:29:28.597Z,99194.65
2018-11-13T09:31:56.554Z,99186.34
2018-11-13T09:34:24.629Z,99181.12
2018-11-13T09:36:52.256Z,99189.05
2018-11-13T09:39:19.659Z,99191.69
2018-11-13T09:41:47.481Z,99190.38
2018-11-13T09:44:14.907Z,99194.68
2018-11-13T09:46:42.401Z,99198.18
2018-11-13T09:49:11.004Z,99204.25
2018-11-13T09:51:38.481Z,99199.88
2018-11-13T09:54:06.162Z,99207.30
2018-11-13T09:56:33.658Z,99213.50
2018-11-13T09:59:01.283Z,99224.92
2018-11-13T10:01:28.981Z,99214.88
2018-11-13T10:03:56.801Z,99214.06
2018-11-13T10:06:23.793Z,99226.89
2018-11-13T10:08:51.945Z,99236.55
2018-11-13T10:11:20.081Z,99237.94
2018-11-13T10:13:47.544Z,99239.68
2018-11-13T10:16:15.513Z,99243.69
2018-11-13T10:18:43.441Z,99236.34
2018-11-13T10:21:11.040Z,99235.05
2018-11-13T10:23:38.579Z,99242.94
2018-11-13T10:26:07.015Z,99256.50
2018-11-13T10:28:35.154Z,99248.50
2018-11-13T10:31:02.813Z,99259.00
2018-11-13T10:33:30.321Z,99239.76
2018-11-13T10:35:57.808Z,99235.81
2018-11-13T10:38:25.610Z,99230.52
2018-11-13T10:40:53.164Z,99241.02
2018-11-13T10:43:20.899Z,99254.16
2018-11-13T10:45:48.447Z,99254.13
2018-11-13T10:48:15.864Z,99234.80
2018-11-13T10:50:43.389Z,99247.09
2018-11-13T10:53:10.778Z,99237.80
2018-11-13T10:55:38.215Z,99250.48
2018-11-13T10:58:05.623Z,99252.67
2018-11-13T11:00:38.610Z,99239.04
2018-11-13T11:03:13.413Z,99236.34
2018-11-13T11:05:41.126Z,99245.59
2018-11-13T11:08:08.586Z,99240.72
2018-11-13T11:10:37.587Z,99240.30
2018-11-13T11:13:05.673Z,99235.87
2018-11-13T11:15:33.193Z,99239.43
2018-11-13T11:18:00.750Z,99232.91
2018-11-13T11:20:28.630Z,99235.98
2018-11-13T11:22:56.742Z,99234.28
2018-11-13T11:25:24.823Z,99226.86
2018-11-13T11:27:52.258Z,99220.75
2018-11-13T11:30:20.339Z,99220.73
2018-11-13T11:32:47.887Z,99223.83
2018-11-13T11:35:15.375Z,99227.78
2018-11-13T11:37:42.788Z,99222.87
2018-11-13T11:40:11.415Z,99229.34
2018-11-13T11:42:38.907Z,99235.87
2018-11-13T11:45:08.335Z,99242.39
2018-11-13T11:47:35.890Z,99238.69
2018-11-13T11:50:03.427Z,99238.16
2018-11-13T11:52:30.797Z,99237.20
2018-11-13T11:54:58.095Z,99243.86
2018-11-13T11:57:25.525Z,99235.95
2018-11-13T11:59:52.967Z,99234.34
2018-11-13T12:02:20.746Z,99227.75
2018-11-13T12:04:48.050Z,99244.66
2018-11-13T12:07:15.470Z,99246.51
2018-11-13T12:09:42.847Z,99247.94
2018-11-13T12:12:10.956Z,99244.84
2018-11-13T12:14:38.280Z,99254.41
2018-11-13T12:17:06.274Z,99260.41
2018-11-13T12:19:33.813Z,99263.91
2018-11-13T12:22:01.345Z,99263.53
2018-11-13T12:24:28.650Z,99265.84
2018-11-13T12:26:56.124Z,99263.05
2018-11-13T12:29:23.488Z,99266.40
2018-11-13T12:31:51.303Z,99265.27
2018-11-13T12:34:18.616Z,99266.18
2018-11-13T12:36:46.064Z,99266.36
2018-11-13T12:39:13.396Z,99275.36
2018-11-13T12:41:41.112Z,99267.38
2018-11-13T12:45:30.077Z,99261.16
2018-11-13T12:47:57.598Z,99259.53
2018-11-13T12:50:29.532Z,99258.70
2018-11-13T12:53:01.433Z,99257.70
2018-11-13T12:55:28.795Z,99255.89
2018-11-13T12:57:58.059Z,99265.91
2018-11-13T13:00:24.846Z,99268.70
2018-11-13T13:02:52.870Z,99272.58
2018-11-13T13:05:21.051Z,99287.61
2018-11-13T13:07:48.590Z,99280.94
2018-11-13T13:10:17.267Z,99284.52
2018-11-13T13:12:45.640Z,99282.26
2018-11-13T13:15:14.667Z,99280.34
2018-11-13T13:17:42.305Z,99282.49
2018-11-13T13:20:14.123Z,99282.19
2018-11-13T13:22:41.789Z,99295.72
2018-11-13T13:25:11.768Z,99280.48
2018-11-13T13:27:39.268Z,99288.47
2018-11-13T13:30:08.837Z,99292.02
2018-11-13T13:32:39.500Z,99283.58
2018-11-13T13:35:52.334Z,99284.63
2018-11-13T13:38:20.628Z,99299.89
2018-11-13T13:40:49.529Z,99297.59
2018-11-13T13:43:17.323Z,99300.95
2018-11-13T13:45:45.574Z,99309.63
2018-11-13T13:48:13.369Z,99309.97
2018-11-13T13:50:41.276Z,99308.27
2018-11-13T13:53:09.621Z,99314.83
2018-11-13T13:55:37.223Z,99315.70
2018-11-13T13:58:05.219Z,99311.25
2018-11-13T14:00:33.683Z,99321.09
2018-11-13T14:03:01.348Z,99323.23
2018-11-13T14:05:28.861Z,99319.01
2018-11-13T14:07:56.881Z,99319.15
2018-11-13T14:10:24.309Z,99325.50
2018-11-13T14:12:51.764Z,99324.00
2018-11-13T14:15:19.478Z,99316.60
2018-11-13T14:17:46.957Z,99328.56
2018-11-13T14:20:16.386Z,99331.75
2018-11-13T14:22:43.809Z,99343.63
2018-11-13T14:25:12.052Z,99342.47
2018-11-13T14:27:39.514Z,99337.77
2018-11-13T14:30:23.330Z,99337.11
2018-11-13T14:32:51.233Z,99350.81
2018-11-13T14:35:18.779Z,99360.05
2018-11-13T14:37:46.449Z,99347.75
2018-11-13T14:40:20.564Z,99351.84
2018-11-13T14:42:48.405Z,99358.05
2018-11-13T14:45:16.640Z,99362.98
2018-11-13T14:47:44.720Z,99369.13
2018-11-13T14:50:13.598Z,99372.74
2018-11-13T14:52:41.171Z,99377.19
2018-11-13T14:55:11.402Z,99374.58
2018-11-13T14:57:38.768Z,99377.28
2018-11-13T15:00:09.807Z,99375.14
2018-11-13T15:02:37.287Z,99375.68
2018-11-13T15:05:05.895Z,99376.64
2018-11-13T15:07:33.190Z,99394.28
2018-11-13T15:10:00.785Z,99398.75
2018-11-13T15:12:28.204Z,99393.99
2018-11-13T15:14:55.634Z,99399.75
2018-11-13T15:17:22.938Z,99394.11
2018-11-13T15:19:50.891Z,99399.42
2018-11-13T15:22:18.342Z,99390.74
2018-11-13T15:24:45.926Z,99406.13
2018-11-13T15:27:13.417Z,99411.44
2018-11-13T15:29:40.836Z,99414.09
2018-11-13T15:32:08.437Z,99414.92
2018-11-13T15:34:36.685Z,99421.13
2018-11-13T15:37:04.084Z,99415.03
2018-11-13T15:39:31.472Z,99428.23
2018-11-13T15:41:58.916Z,99429.06
2018-11-13T15:44:26.302Z,99427.34
2018-11-13T15:46:53.695Z,99437.00
2018-11-13T15:49:21.109Z,99440.03
2018-11-13T15:51:48.539Z,99449.70
2018-11-13T15:54:15.842Z,99448.83
2018-11-13T15:56:43.117Z,99454.88
2018-11-13T15:59:10.501Z,99468.00
2018-11-13T16:01:37.744Z,99465.80
2018-11-13T16:04:05.140Z,99471.91
2018-11-13T16:06:32.432Z,99472.85
2018-11-13T16:08:59.690Z,99479.44
2018-11-13T16:11:26.913Z,99483.45
2018-11-13T16:13:54.323Z,99484.80
2018-11-13T16:16:21.645Z,99483.55
2018-11-13T16:18:49.309Z,99487.49
2018-11-13T16:21:16.629Z,99486.64
2018-11-13T16:23:43.816Z,99494.55
2018-11-13T16:26:11.117Z,99491.59
2018-11-13T16:28:38.377Z,99499.01
2018-11-13T16:31:06.516Z,99502.98
2018-11-13T16:33:33.846Z,99510.88
2018-11-13T16:36:01.098Z,99514.36
2018-11-13T16:38:28.468Z,99521.37
2018-11-13T16:40:55.651Z,99513.51
2018-11-13T16:43:23.616Z,99515.29
2018-11-13T16:45:51.077Z,99512.28
2018-11-13T16:48:18.978Z,99518.85
2018-11-13T16:50:46.217Z,99521.45
2018-11-13T16:53:13.534Z,99525.84
2018-11-13T16:55:46.597Z,99532.38
2018-11-13T16:58:14.849Z,99530.19
2018-11-13T17:00:42.825Z,99534.56
2018-11-13T17:03:09.999Z,99539.34
2018-11-13T17:05:38.060Z,99528.83
2018-11-13T17:08:06.197Z,99536.74
2018-11-13T17:10:38.597Z,99539.38
2018-11-13T17:13:06.041Z,99533.30
2018-11-13T17:15:33.285Z,99542.52
2018-11-13T17:18:02.139Z,99546.00
2018-11-13T17:20:29.428Z,99553.88
2018-11-13T17:22:57.466Z,99546.46
2018-11-13T17:25:33.024Z,99560.45
2018-11-13T17:28:02.260Z,99561.77
2018-11-13T17:30:33.812Z,99566.59
2018-11-13T17:33:02.121Z,99565.25
2018-11-13T17:35:30.334Z,99566.15
2018-11-13T17:37:58.365Z,99573.13
2018-11-13T17:40:26.998Z,99576.63
2018-11-13T17:42:55.870Z,99577.52
2018-11-13T17:45:25.908Z,99584.95
2018-11-13T17:47:57.333Z,99585.38
2018-11-13T17:50:27.412Z,99588.00
2018-11-13T17:52:55.417Z,99596.73
2018-11-13T17:55:23.091Z,99602.88
2018-11-13T17:57:51.803Z,99595.86
2018-11-13T18:00:22.298Z,99595.88
2018-11-13T18:02:49.832Z,99599.38
2018-11-13T18:05:18.426Z,99600.69
2018-11-13T18:07:45.668Z,99603.75
2018-11-13T18:10:13.011Z,99602.88
2018-11-13T18:12:40.351Z,99605.94
2018-11-13T18:15:11.042Z,99605.47
2018-11-13T18:17:38.336Z,99613.34
2018-11-13T18:20:08.114Z,99618.61
2018-11-13T18:22:37.139Z,99615.09
2018-11-13T18:25:09.119Z,99620.33
2018-11-13T18:27:37.628Z,99615.95
2018-11-13T18:30:08.377Z,99619.03
2018-11-13T18:32:36.952Z,99622.51
2018-11-13T18:35:05.049Z,99622.08
2018-11-13T18:37:32.325Z,99627.33
2018-11-13T18:40:00.634Z,99624.27
2018-11-13T18:42:28.612Z,99628.20
2018-11-13T18:44:56.097Z,99633.45
2018-11-13T18:47:25.179Z,99635.19
2018-11-13T18:49:53.084Z,99635.21
2018-11-13T18:52:28.123Z,99636.95
2018-11-13T18:54:56.874Z,99634.76
2018-11-13T18:57:24.235Z,99637.83
2018-11-13T18:59:51.699Z,99640.44
2018-11-13T19:02:20.073Z,99642.20
2018-11-13T19:04:47.444Z,99637.39
2018-11-13T19:07:14.825Z,99639.55
2018-11-13T19:09:42.278Z,99643.48
2018-11-13T19:12:10.030Z,99643.92
2018-11-13T19:14:38.514Z,99643.91
2018-11-13T19:17:06.228Z,99643.48
2018-11-13T19:19:34.574Z,99641.72
2018-11-13T19:22:02.980Z,99647.41
2018-11-13T19:24:30.406Z,99647.41
2018-11-13T19:26:58.075Z,99648.72
2018-11-13T19:29:25.546Z,99645.66
2018-11-13T19:31:53.079Z,99649.59
2018-11-13T19:34:21.163Z,99646.12
2018-11-13T19:36:48.561Z,99647.41
2018-11-13T19:39:16.264Z,99653.52
2018-11-13T19:41:45.226Z,99652.67
2018-11-13T19:44:17.155Z,99657.48
2018-11-13T19:46:44.640Z,99665.31
2018-11-13T19:49:12.192Z,99668.41
2018-11-13T19:51:39.804Z,99670.12
2018-11-13T19:54:07.484Z,99667.53
2018-11-13T19:56:34.888Z,99672.31
2018-11-13T19:59:02.543Z,99671.88
2018-11-13T20:01:32.512Z,99680.62
2018-11-13T20:04:01.187Z,99677.09
2018-11-13T20:06:28.593Z,99681.91
2018-11-13T20:08:56.756Z,99691.48
2018-11-13T20:11:24.270Z,99688.87
2018-11-13T20:13:55.004Z,99687.99
2018-11-13T20:16:22.464Z,99689.71
2018-11-13T20:18:50.191Z,99695.42
2018-11-13T20:21:17.567Z,99693.64
2018-11-13T20:23:46.814Z,99696.27
2018-11-13T20:26:16.010Z,99697.58
2018-11-13T20:28:43.416Z,99694.08
2018-11-13T20:31:10.836Z,99696.70
2018-11-13T20:33:38.035Z,99700.20
2018-11-13T20:36:05.912Z,99694.52
2018-11-13T20:38:33.329Z,99697.11
2018-11-13T20:41:00.781Z,99697.98
2018-11-13T20:43:28.272Z,99708.93
2018-11-13T20:45:56.114Z,99709.38
2018-11-13T20:48:24.437Z,99704.13
2018-11-13T20:50:52.734Z,99713.30
2018-11-13T20:53:20.182Z,99708.06
2018-11-13T20:55:47.759Z,99725.49
2018-11-13T20:58:15.393Z,99724.18
2018-11-13T21:00:43.813Z,99730.27
2018-11-13T21:03:11.318Z,99733.75
2018-11-13T21:05:39.458Z,99723.27
2018-11-13T21:08:07.274Z,99733.23
2018-11-13T21:10:36.660Z,99725.73
2018-11-13T21:13:04.573Z,99727.86
2018-11-13T21:15:39.750Z,99736.14
2018-11-13T21:18:07.486Z,99732.17
2018-11-13T21:20:34.824Z,99738.71
2018-11-13T21:23:03.947Z,99733.42
2018-11-13T21:25:31.259Z,99740.41
2018-11-13T21:28:00.689Z,99739.10
2018-11-13T21:30:28.230Z,99745.69
2018-11-13T21:32:56.102Z,99744.82
2018-11-13T21:35:23.740Z,99747.44
2018-11-13T21:37:53.378Z,99755.25
2018-11-13T21:40:23.788Z,99761.30
2018-11-13T21:42:55.811Z,99767.83
2018-11-13T21:45:24.889Z,99768.65
2018-11-13T21:47:54.588Z,99772.13
2018-11-13T21:50:24.023Z,99780.84
2018-11-13T21:52:51.444Z,99770.75
2018-11-13T21:55:19.839Z,99770.69
2018-11-13T21:57:47.440Z,99775.98
2018-11-13T22:00:18.772Z,99778.60
2018-11-13T22:02:48.661Z,99779.02
2018-11-13T22:05:16.003Z,99784.62
2018-11-13T22:07:43.281Z,99786.80
2018-11-13T22:10:11.057Z,99787.63
2018-11-13T22:12:39.001Z,99784.62
2018-11-13T22:15:08.180Z,99788.13
2018-11-13T22:17:35.591Z,99788.98
2018-11-13T22:20:03.072Z,99792.48
2018-11-13T22:22:30.454Z,99786.81
2018-11-13T22:24:58.158Z,99793.78
2018-11-13T22:27:25.480Z,99795.91
2018-11-13T22:29:53.376Z,99796.31
2018-11-13T22:32:20.660Z,99801.98
2018-11-13T22:34:47.966Z,99798.86
2018-11-13T22:37:15.295Z,99796.76
2018-11-13T22:39:43.176Z,99799.39
2018-11-13T22:42:10.426Z,99806.80
2018-11-13T22:44:37.685Z,99802.81
2018-11-13T22:47:05.013Z,99804.53
2018-11-13T22:49:32.383Z,99803.66
2018-11-13T22:51:59.748Z,99804.98
2018-11-13T22:54:27.138Z,99807.22
2018-11-13T22:56:54.481Z,99797.58
2018-11-13T22:59:21.749Z,99800.19
2018-11-13T23:01:49.115Z,99803.83
2018-11-13T23:04:16.479Z,99801.26
2018-11-13T23:06:43.774Z,99802.95
2018-11-13T23:09:12.546Z,99802.06
2018-11-13T23:11:39.858Z,99802.49
2018-11-13T23:14:07.179Z,99808.99
2018-11-13T23:16:34.639Z,99805.86
2018-11-13T23:19:02.083Z,99805.90
2018-11-13T23:21:29.401Z,99804.16
2018-11-13T23:23:56.722Z,99806.38
2018-11-13T23:26:23.994Z,99813.39
2018-11-13T23:28:51.369Z,99807.22
2018-11-13T23:31:18.681Z,99806.34
2018-11-13T23:33:45.985Z,99809.34
2018-11-13T23:36:13.383Z,99808.91
2018-11-13T23:38:40.619Z,99812.38
2018-11-13T23:41:07.918Z,99810.13
2018-11-13T23:43:35.904Z,99813.14
2018-11-13T23:46:03.196Z,99817.50
2018-11-13T23:48:30.552Z,99816.20
2018-11-13T23:50:57.857Z,99827.13
2018-11-13T23:53:25.906Z,99822.66
2018-11-13T23:55:53.179Z,99826.16
2018-11-13T23:58:20.534Z,99823.95
